createdAt,value
2023-03-21T00:01:33.377Z,99.90
2023-03-21T00:04:01.205Z,99.90
2023-03-21T00:06:29.169Z,99.90
2023-03-21T00:08:57.097Z,99.90
2023-03-21T00:11:25.622Z,99.90
2023-03-21T00:13:53.855Z,99.90
2023-03-21T00:16:30.327Z,99.90
2023-03-21T00:19:03.838Z,99.90
2023-03-21T00:21:48.777Z,99.90
2023-03-21T00:24:22.742Z,99.90
2023-03-21T00:26:52.058Z,99.90
2023-03-21T00:29:21.142Z,99.90
2023-03-21T00:31:49.171Z,99.90
2023-03-21T00:34:22.541Z,99.90
2023-03-21T00:37:02.118Z,99.90
2023-03-21T00:39:30.279Z,99.90
2023-03-21T00:41:58.410Z,99.90
2023-03-21T00:44:26.247Z,99.90
2023-03-21T00:47:06.521Z,99.90
2023-03-21T00:49:36.069Z,99.90
2023-03-21T00:52:38.107Z,99.90
2023-03-21T00:54:55.350Z,99.90
2023-03-21T00:57:37.592Z,99.90
2023-03-21T01:00:10.897Z,99.90
2023-03-21T01:02:43.476Z,99.90
2023-03-21T01:05:13.184Z,99.90
2023-03-21T01:07:40.984Z,99.90
2023-03-21T01:10:11.316Z,99.90
2023-03-21T01:12:39.285Z,99.90
2023-03-21T01:15:07.642Z,99.90
2023-03-21T01:17:35.768Z,99.90
2023-03-21T01:20:06.761Z,99.90
2023-03-21T01:22:34.576Z,99.90
2023-03-21T01:25:19.102Z,99.90
2023-03-21T01:27:50.740Z,99.90
2023-03-21T01:30:22.757Z,99.90
2023-03-21T01:32:52.581Z,99.90
2023-03-21T01:35:20.635Z,99.90
2023-03-21T01:37:49.453Z,99.90
2023-03-21T01:40:21.594Z,99.90
2023-03-21T01:42:51.877Z,99.90
2023-03-21T01:45:59.335Z,99.90
2023-03-21T01:48:45.472Z,99.90
2023-03-21T01:51:14.252Z,99.90
2023-03-21T01:53:56.579Z,99.90
2023-03-21T01:56:32.352Z,99.90
2023-03-21T01:59:21.978Z,99.90
2023-03-21T02:02:27.188Z,99.90
2023-03-21T02:05:28.522Z,99.90
2023-03-21T02:07:57.428Z,99.90
2023-03-21T02:10:28.282Z,99.90
2023-03-21T02:13:10.321Z,99.90
2023-03-21T02:15:49.526Z,99.90
2023-03-21T02:18:52.556Z,99.90
2023-03-21T02:21:50.989Z,99.90
2023-03-21T02:24:48.889Z,99.90
2023-03-21T02:27:25.351Z,99.90
2023-03-21T02:30:29.481Z,99.90
2023-03-21T02:33:05.883Z,99.90
2023-03-21T02:36:03.113Z,99.90
2023-03-21T02:38:43.973Z,99.90
2023-03-21T02:41:40.349Z,99.90
2023-03-21T02:44:24.920Z,99.90
2023-03-21T02:47:06.429Z,99.90
2023-03-21T02:49:59.239Z,99.90
2023-03-21T02:52:39.133Z,99.90
2023-03-21T02:55:20.343Z,99.90
2023-03-21T02:58:06.907Z,99.90
2023-03-21T03:00:45.357Z,99.90
2023-03-21T03:03:33.673Z,99.90
2023-03-21T03:06:20.082Z,99.90
2023-03-21T03:09:04.900Z,99.90
2023-03-21T03:11:46.684Z,99.90
2023-03-21T03:15:00.359Z,99.90
2023-03-21T03:17:45.196Z,99.90
2023-03-21T03:20:40.010Z,99.90
2023-03-21T03:23:35.942Z,99.90
2023-03-21T03:26:27.751Z,99.90
2023-03-21T03:29:07.445Z,99.90
2023-03-21T03:31:42.369Z,99.90
2023-03-21T03:34:21.411Z,99.90
2023-03-21T03:36:56.843Z,99.90
2023-03-21T03:39:36.668Z,99.90
2023-03-21T03:42:28.034Z,99.90
2023-03-21T03:45:07.267Z,99.90
2023-03-21T03:48:04.715Z,99.90
2023-03-21T03:50:44.899Z,99.90
2023-03-21T03:53:37.618Z,99.90
2023-03-21T03:56:08.595Z,99.90
2023-03-21T03:58:45.693Z,99.90
2023-03-21T04:01:18.426Z,99.90
2023-03-21T04:04:03.597Z,99.90
2023-03-21T04:06:38.967Z,99.90
2023-03-21T04:09:20.477Z,99.90
2023-03-21T04:11:51.968Z,99.90
2023-03-21T04:14:22.241Z,99.90
2023-03-21T04:16:52.891Z,99.90
2023-03-21T04:19:22.075Z,99.90
2023-03-21T04:21:51.130Z,99.90
2023-03-21T04:24:21.027Z,99.90
2023-03-21T04:26:54.886Z,99.90
2023-03-21T04:29:45.038Z,99.90
2023-03-21T04:32:28.921Z,99.90
2023-03-21T04:35:12.603Z,99.90
2023-03-21T04:37:42.894Z,99.90
2023-03-21T04:40:18.577Z,99.90
2023-03-21T04:42:49.427Z,99.90
2023-03-21T04:45:19.373Z,99.90
2023-03-21T04:47:48.690Z,99.90
2023-03-21T04:50:17.504Z,99.90
2023-03-21T04:52:45.824Z,99.90
2023-03-21T04:55:15.718Z,99.90
2023-03-21T04:57:47.740Z,99.90
2023-03-21T05:00:18.046Z,99.90
2023-03-21T05:02:47.562Z,99.90
2023-03-21T05:05:16.005Z,99.90
2023-03-21T05:07:44.526Z,99.90
2023-03-21T05:10:15.160Z,99.90
2023-03-21T05:12:43.733Z,99.90
2023-03-21T05:15:13.046Z,99.90
2023-03-21T05:17:43.230Z,99.90
2023-03-21T05:20:11.992Z,99.90
2023-03-21T05:22:41.555Z,99.90
2023-03-21T05:25:14.098Z,99.90
2023-03-21T05:28:02.686Z,99.90
2023-03-21T05:30:33.436Z,99.90
2023-03-21T05:33:03.241Z,99.90
2023-03-21T05:35:32.005Z,99.90
2023-03-21T05:38:06.237Z,99.90
2023-03-21T05:40:49.804Z,99.90
2023-03-21T05:43:19.029Z,99.90
2023-03-21T05:45:48.824Z,99.90
2023-03-21T05:48:19.347Z,99.90
2023-03-21T05:51:04.124Z,99.90
2023-03-21T05:53:32.658Z,99.90
2023-03-21T05:56:00.929Z,99.90
2023-03-21T05:58:45.955Z,99.90
2023-03-21T06:01:14.603Z,99.90
2023-03-21T06:03:47.858Z,99.90
2023-03-21T06:06:23.435Z,99.90
2023-03-21T06:08:56.840Z,99.90
2023-03-21T06:11:29.433Z,99.90
2023-03-21T06:14:18.330Z,99.90
2023-03-21T06:16:53.217Z,99.90
2023-03-21T06:19:22.586Z,99.90
2023-03-21T06:22:08.164Z,99.90
2023-03-21T06:24:39.997Z,99.90
2023-03-21T06:27:11.481Z,99.90
2023-03-21T06:29:50.845Z,99.90
2023-03-21T06:32:19.577Z,99.90
2023-03-21T06:34:49.874Z,99.90
2023-03-21T06:37:19.102Z,99.90
2023-03-21T06:39:47.550Z,99.90
2023-03-21T06:42:15.928Z,99.90
2023-03-21T06:44:47.594Z,99.90
2023-03-21T06:47:17.457Z,99.90
2023-03-21T06:49:47.471Z,99.90
2023-03-21T06:52:16.202Z,99.90
2023-03-21T06:54:44.404Z,99.90
2023-03-21T06:57:15.318Z,99.90
2023-03-21T06:59:43.638Z,99.90
2023-03-21T07:02:16.437Z,99.90
2023-03-21T07:05:08.937Z,99.90
2023-03-21T07:07:38.250Z,99.90
2023-03-21T07:10:07.584Z,99.90
2023-03-21T07:12:44.763Z,99.90
2023-03-21T07:15:24.979Z,99.90
2023-03-21T07:17:53.577Z,99.90
2023-03-21T07:20:21.553Z,99.90
2023-03-21T07:22:49.999Z,99.90
2023-03-21T07:25:18.768Z,99.90
2023-03-21T07:27:47.803Z,99.90
2023-03-21T07:30:16.989Z,99.90
2023-03-21T07:32:46.170Z,99.90
2023-03-21T07:35:16.539Z,99.90
2023-03-21T07:37:44.783Z,99.90
2023-03-21T07:40:16.631Z,99.90
2023-03-21T07:42:46.005Z,99.90
2023-03-21T07:45:21.612Z,99.90
2023-03-21T07:47:49.848Z,99.90
2023-03-21T07:50:18.528Z,99.90
2023-03-21T07:52:47.072Z,99.90
2023-03-21T07:55:14.953Z,99.90
2023-03-21T07:57:43.485Z,99.90
2023-03-21T08:00:13.107Z,99.50
2023-03-21T08:02:41.373Z,99.80
2023-03-21T08:05:11.865Z,99.80
2023-03-21T08:07:39.991Z,98.40
2023-03-21T08:10:09.078Z,97.50
2023-03-21T08:12:37.288Z,97.50
2023-03-21T08:15:08.952Z,97.40
2023-03-21T08:17:38.699Z,97.00
2023-03-21T08:20:09.401Z,96.20
2023-03-21T08:22:38.595Z,96.30
2023-03-21T08:25:08.518Z,95.90
2023-03-21T08:27:36.771Z,96.00
2023-03-21T08:30:05.658Z,94.50
2023-03-21T08:32:34.246Z,94.00
2023-03-21T08:35:02.896Z,94.40
2023-03-21T08:37:31.597Z,93.80
2023-03-21T08:39:59.593Z,94.10
2023-03-21T08:42:27.608Z,94.20
2023-03-21T08:44:55.689Z,93.10
2023-03-21T08:47:23.681Z,93.50
2023-03-21T08:49:51.865Z,92.00
2023-03-21T08:52:19.888Z,92.10
2023-03-21T08:54:49.102Z,92.40
2023-03-21T08:57:17.392Z,92.10
2023-03-21T08:59:45.412Z,92.30
2023-03-21T09:02:18.095Z,91.40
2023-03-21T09:04:46.464Z,90.30
2023-03-21T09:07:15.535Z,90.90
2023-03-21T09:09:45.937Z,90.50
2023-03-21T09:12:16.585Z,90.70
2023-03-21T09:14:44.528Z,89.30
2023-03-21T09:17:12.499Z,87.00
2023-03-21T09:19:42.067Z,87.90
2023-03-21T09:22:17.789Z,84.20
2023-03-21T09:24:48.112Z,84.20
2023-03-21T09:27:18.705Z,84.50
2023-03-21T09:29:47.290Z,83.50
2023-03-21T09:32:15.772Z,82.60
2023-03-21T09:34:45.197Z,82.90
2023-03-21T09:37:16.291Z,84.60
2023-03-21T09:39:45.579Z,83.90
2023-03-21T09:42:32.125Z,85.40
2023-03-21T09:45:09.713Z,85.00
2023-03-21T09:47:54.003Z,84.30
2023-03-21T09:50:43.101Z,83.20
2023-03-21T09:53:24.856Z,83.30
2023-03-21T09:55:54.893Z,83.70
2023-03-21T09:58:34.862Z,83.00
2023-03-21T10:01:42.051Z,85.60
2023-03-21T10:04:17.071Z,85.90
2023-03-21T10:06:52.666Z,87.70
2023-03-21T10:09:24.962Z,88.00
2023-03-21T10:12:12.258Z,89.20
2023-03-21T10:14:44.731Z,90.70
2023-03-21T10:17:21.945Z,90.90
2023-03-21T10:20:18.462Z,90.80
2023-03-21T10:22:48.324Z,91.50
2023-03-21T10:25:20.072Z,91.80
2023-03-21T10:27:49.288Z,92.80
2023-03-21T10:30:28.848Z,93.50
2023-03-21T10:33:06.186Z,92.80
2023-03-21T10:35:37.734Z,93.20
2023-03-21T10:38:08.115Z,93.60
2023-03-21T10:40:36.128Z,93.90
2023-03-21T10:43:20.340Z,94.80
2023-03-21T10:45:49.593Z,96.00
2023-03-21T10:48:17.531Z,96.60
2023-03-21T10:50:51.182Z,96.60
2023-03-21T10:53:36.055Z,96.90
2023-03-21T10:56:09.770Z,96.90
2023-03-21T10:58:43.911Z,96.80
2023-03-21T11:01:16.382Z,96.70
2023-03-21T11:04:07.970Z,96.60
2023-03-21T11:06:40.695Z,96.70
2023-03-21T11:09:22.018Z,96.60
2023-03-21T11:11:53.220Z,96.40
2023-03-21T11:14:48.398Z,95.90
2023-03-21T11:17:19.569Z,95.00
2023-03-21T11:20:00.597Z,94.30
2023-03-21T11:22:42.932Z,93.20
2023-03-21T11:25:30.908Z,91.30
2023-03-21T11:27:59.838Z,90.20
2023-03-21T11:30:28.920Z,89.10
2023-03-21T11:33:06.742Z,89.10
2023-03-21T11:35:39.772Z,89.60
2023-03-21T11:38:23.711Z,88.40
2023-03-21T11:40:58.793Z,87.90
2023-03-21T11:43:30.328Z,86.60
2023-03-21T11:46:06.110Z,86.80
2023-03-21T11:48:49.292Z,85.60
2023-03-21T11:51:32.359Z,86.90
2023-03-21T11:54:14.921Z,86.80
2023-03-21T11:56:54.431Z,86.00
2023-03-21T11:59:48.987Z,84.90
2023-03-21T12:02:34.212Z,85.30
2023-03-21T12:05:17.237Z,85.50
2023-03-21T12:08:05.856Z,86.40
2023-03-21T12:10:54.266Z,86.10
2023-03-21T12:13:52.696Z,86.60
2023-03-21T12:16:33.985Z,86.20
2023-03-21T12:19:33.052Z,87.00
2023-03-21T12:22:18.112Z,86.80
2023-03-21T12:25:01.742Z,87.00
2023-03-21T12:27:38.918Z,87.90
2023-03-21T12:30:43.124Z,87.60
2023-03-21T12:33:27.609Z,88.80
2023-03-21T12:36:00.920Z,88.80
2023-03-21T12:38:51.959Z,89.30
2023-03-21T12:41:54.971Z,89.60
2023-03-21T12:44:26.761Z,89.70
2023-03-21T12:46:57.498Z,89.30
2023-03-21T12:49:34.851Z,89.30
2023-03-21T12:52:08.291Z,89.90
2023-03-21T12:54:43.399Z,90.60
2023-03-21T12:57:40.156Z,90.60
2023-03-21T13:00:34.987Z,90.70
2023-03-21T13:03:04.636Z,90.60
2023-03-21T13:05:48.850Z,90.30
2023-03-21T13:08:52.306Z,90.80
2023-03-21T13:11:24.125Z,90.40
2023-03-21T13:13:57.364Z,90.60
2023-03-21T13:16:33.726Z,90.70
2023-03-21T13:19:16.280Z,90.90
2023-03-21T13:22:14.573Z,91.10
2023-03-21T13:24:49.749Z,91.40
2023-03-21T13:27:29.122Z,91.40
2023-03-21T13:30:09.038Z,91.40
2023-03-21T13:32:40.990Z,91.60
2023-03-21T13:35:46.629Z,90.90
2023-03-21T13:38:28.512Z,88.20
2023-03-21T13:41:37.538Z,86.60
2023-03-21T13:44:05.471Z,83.30
2023-03-21T13:46:53.895Z,79.80
2023-03-21T13:49:38.636Z,76.30
2023-03-21T13:52:12.466Z,77.20
2023-03-21T13:54:57.492Z,77.30
2023-03-21T13:57:29.767Z,78.80
2023-03-21T14:00:30.864Z,78.80
2023-03-21T14:03:08.997Z,80.50
2023-03-21T14:05:39.569Z,81.20
2023-03-21T14:08:15.733Z,80.90
2023-03-21T14:10:57.538Z,80.20
2023-03-21T14:13:28.555Z,80.80
2023-03-21T14:16:13.178Z,80.90
2023-03-21T14:19:07.319Z,81.00
2023-03-21T14:21:36.465Z,82.00
2023-03-21T14:24:04.280Z,82.60
2023-03-21T14:26:40.752Z,84.30
2023-03-21T14:29:25.114Z,84.70
2023-03-21T14:31:55.989Z,85.80
2023-03-21T14:34:27.506Z,86.50
2023-03-21T14:36:58.634Z,88.10
2023-03-21T14:39:33.544Z,88.50
2023-03-21T14:42:12.308Z,88.80
2023-03-21T14:44:57.867Z,89.20
2023-03-21T14:47:29.316Z,89.10
2023-03-21T14:49:58.624Z,88.20
2023-03-21T14:52:34.565Z,87.50
2023-03-21T14:55:06.663Z,87.90
2023-03-21T14:57:34.668Z,88.00
2023-03-21T15:00:12.709Z,88.50
2023-03-21T15:02:43.509Z,89.00
2023-03-21T15:05:21.047Z,89.80
2023-03-21T15:08:13.386Z,90.30
2023-03-21T15:10:42.491Z,91.00
2023-03-21T15:13:20.189Z,91.50
2023-03-21T15:15:48.784Z,92.30
2023-03-21T15:18:23.806Z,92.50
2023-03-21T15:20:53.367Z,94.70
2023-03-21T15:23:28.841Z,96.10
2023-03-21T15:25:56.982Z,97.60
2023-03-21T15:28:26.739Z,98.40
2023-03-21T15:30:57.111Z,98.80
2023-03-21T15:33:26.454Z,98.70
2023-03-21T15:36:00.271Z,99.10
2023-03-21T15:38:37.588Z,99.00
2023-03-21T15:41:20.744Z,99.30
2023-03-21T15:44:10.513Z,99.50
2023-03-21T15:46:45.609Z,99.80
2023-03-21T15:49:16.578Z,99.90
2023-03-21T15:51:53.191Z,99.90
2023-03-21T15:54:31.496Z,99.90
2023-03-21T15:57:10.028Z,99.90
2023-03-21T15:59:42.171Z,99.90
2023-03-21T16:02:22.742Z,99.90
2023-03-21T16:05:23.186Z,99.90
2023-03-21T16:07:51.461Z,99.90
2023-03-21T16:10:31.934Z,99.90
2023-03-21T16:13:01.356Z,99.90
2023-03-21T16:15:29.647Z,99.90
2023-03-21T16:18:00.210Z,99.90
2023-03-21T16:20:33.198Z,99.90
2023-03-21T16:23:01.814Z,99.90
2023-03-21T16:25:31.148Z,99.90
2023-03-21T16:27:59.666Z,99.90
2023-03-21T16:30:27.993Z,99.90
2023-03-21T16:32:57.030Z,99.90
2023-03-21T16:35:26.778Z,99.90
2023-03-21T16:37:54.789Z,99.90
2023-03-21T16:40:41.476Z,99.90
2023-03-21T16:43:10.011Z,99.90
2023-03-21T16:45:38.478Z,99.90
2023-03-21T16:48:09.229Z,99.90
2023-03-21T16:50:42.756Z,99.90
2023-03-21T16:53:10.858Z,99.90
2023-03-21T16:55:39.267Z,99.90
2023-03-21T16:58:07.349Z,99.90
2023-03-21T17:00:35.607Z,99.90
2023-03-21T17:03:14.172Z,99.90
2023-03-21T17:05:42.261Z,99.90
2023-03-21T17:08:19.089Z,99.90
2023-03-21T17:10:47.672Z,99.90
2023-03-21T17:13:15.641Z,99.90
2023-03-21T17:15:43.845Z,99.90
2023-03-21T17:18:12.557Z,99.90
2023-03-21T17:20:42.016Z,99.90
2023-03-21T17:23:10.782Z,99.90
2023-03-21T17:25:38.756Z,99.90
2023-03-21T17:28:06.737Z,99.90
2023-03-21T17:30:39.575Z,99.90
2023-03-21T17:33:07.982Z,99.90
2023-03-21T17:35:35.810Z,99.90
2023-03-21T17:38:04.507Z,99.90
2023-03-21T17:40:33.340Z,99.90
2023-03-21T17:43:01.937Z,99.90
2023-03-21T17:45:30.221Z,99.90
2023-03-21T17:47:58.308Z,99.90
2023-03-21T17:50:34.677Z,99.90
2023-03-21T17:53:02.768Z,99.90
2023-03-21T17:55:31.012Z,99.90
2023-03-21T17:57:58.903Z,99.90
2023-03-21T18:00:29.596Z,99.90
2023-03-21T18:02:58.450Z,99.90
2023-03-21T18:05:27.867Z,99.90
2023-03-21T18:08:10.937Z,99.90
2023-03-21T18:10:40.892Z,99.90
2023-03-21T18:13:09.437Z,99.90
2023-03-21T18:15:38.268Z,99.90
2023-03-21T18:18:07.014Z,99.90
2023-03-21T18:20:53.057Z,99.90
2023-03-21T18:23:22.397Z,99.90
2023-03-21T18:25:53.017Z,99.90
2023-03-21T18:28:22.220Z,99.90
2023-03-21T18:33:41.345Z,99.90
2023-03-21T18:36:10.543Z,99.90
2023-03-21T18:38:39.465Z,99.90
2023-03-21T18:41:09.175Z,99.90
2023-03-21T18:44:01.713Z,99.90
2023-03-21T18:46:26.941Z,99.90
2023-03-21T18:48:55.565Z,99.90
2023-03-21T18:51:23.999Z,99.90
2023-03-21T18:53:52.002Z,99.90
2023-03-21T18:57:13.260Z,99.90
2023-03-21T18:59:08.991Z,99.90
2023-03-21T19:01:36.928Z,99.90
2023-03-21T19:04:22.900Z,99.90
2023-03-21T19:06:53.607Z,99.90
2023-03-21T19:09:29.371Z,99.90
2023-03-21T19:12:00.251Z,99.90
2023-03-21T19:14:28.654Z,99.90
2023-03-21T19:17:50.804Z,99.90
2023-03-21T19:19:48.366Z,99.90
2023-03-21T19:22:17.011Z,99.90
2023-03-21T19:24:44.957Z,99.90
2023-03-21T19:27:13.762Z,99.90
2023-03-21T19:29:42.568Z,99.90
2023-03-21T19:32:10.406Z,99.90
2023-03-21T19:34:38.646Z,99.90
2023-03-21T19:37:06.701Z,99.90
2023-03-21T19:39:34.770Z,99.90
2023-03-21T19:42:15.547Z,99.90
2023-03-21T19:44:44.854Z,99.90
2023-03-21T19:47:12.878Z,99.90
2023-03-21T19:50:37.485Z,99.90
2023-03-21T19:52:29.740Z,99.90
2023-03-21T19:55:05.350Z,99.90
2023-03-21T19:57:34.912Z,99.90
2023-03-21T20:00:03.254Z,99.90
2023-03-21T20:02:35.975Z,99.90
2023-03-21T20:05:07.120Z,99.90
2023-03-21T20:07:35.285Z,99.90
2023-03-21T20:10:03.254Z,99.90
2023-03-21T20:12:33.056Z,99.90
2023-03-21T20:15:15.756Z,99.90
2023-03-21T20:17:46.019Z,99.90
2023-03-21T20:20:17.541Z,99.90
2023-03-21T20:25:40.991Z,99.90
2023-03-21T20:28:24.619Z,99.90
2023-03-21T20:31:01.156Z,99.90
2023-03-21T20:33:29.951Z,99.90
2023-03-21T20:38:54.210Z,99.90
2023-03-21T20:41:22.448Z,99.90
2023-03-21T20:46:38.709Z,99.90
2023-03-21T20:49:09.112Z,99.90
2023-03-21T20:54:25.473Z,99.90
2023-03-21T20:56:53.456Z,99.90
2023-03-21T20:59:27.162Z,99.90
2023-03-21T21:01:58.320Z,99.90
2023-03-21T21:04:52.828Z,99.90
2023-03-21T21:07:21.858Z,99.90
2023-03-21T21:09:50.628Z,99.90
2023-03-21T21:12:23.530Z,99.90
2023-03-21T21:14:51.767Z,99.90
2023-03-21T21:17:37.128Z,99.90
2023-03-21T21:20:17.242Z,99.90
2023-03-21T21:23:00.168Z,99.90
2023-03-21T21:25:32.159Z,99.90
2023-03-21T21:28:02.184Z,99.90
2023-03-21T21:30:34.374Z,99.90
2023-03-21T21:33:02.609Z,99.90
2023-03-21T21:35:30.606Z,99.90
2023-03-21T21:37:58.695Z,99.90
2023-03-21T21:40:26.436Z,99.90
2023-03-21T21:42:54.670Z,99.90
2023-03-21T21:45:22.852Z,99.90
2023-03-21T21:47:51.334Z,99.90
2023-03-21T21:50:22.037Z,99.90
2023-03-21T21:52:53.110Z,99.90
2023-03-21T21:55:21.707Z,99.90
2023-03-21T21:57:51.076Z,99.90
2023-03-21T22:00:22.312Z,99.90
2023-03-21T22:02:50.908Z,99.90
2023-03-21T22:05:21.336Z,99.90
2023-03-21T22:07:52.885Z,99.90
2023-03-21T22:10:22.541Z,99.90
2023-03-21T22:12:50.637Z,99.90
2023-03-21T22:15:19.680Z,99.90
2023-03-21T22:17:47.598Z,99.90
2023-03-21T22:20:17.448Z,99.90
2023-03-21T22:22:46.275Z,99.90
2023-03-21T22:25:16.681Z,99.90
2023-03-21T22:27:44.844Z,99.90
2023-03-21T22:30:14.651Z,99.90
2023-03-21T22:32:42.765Z,99.90
2023-03-21T22:35:11.467Z,99.90
2023-03-21T22:37:42.135Z,99.90
2023-03-21T22:40:14.111Z,99.90
2023-03-21T22:42:43.364Z,99.90
2023-03-21T22:45:14.107Z,99.90
2023-03-21T22:47:42.213Z,99.90
2023-03-21T22:50:10.493Z,99.90
2023-03-21T22:52:38.575Z,99.90
2023-03-21T22:55:07.349Z,99.90
2023-03-21T22:57:35.556Z,99.90
2023-03-21T23:00:05.193Z,99.90
2023-03-21T23:02:33.455Z,99.90
2023-03-21T23:05:01.327Z,99.90
2023-03-21T23:07:29.377Z,99.90
2023-03-21T23:09:57.691Z,99.90
2023-03-21T23:12:25.767Z,99.90
2023-03-21T23:14:53.780Z,99.90
2023-03-21T23:17:21.762Z,99.90
2023-03-21T23:19:49.638Z,99.90
2023-03-21T23:22:17.557Z,99.90
2023-03-21T23:24:45.731Z,99.90
2023-03-21T23:27:14.746Z,99.90
2023-03-21T23:29:44.491Z,99.90
2023-03-21T23:32:12.458Z,99.90
2023-03-21T23:34:40.371Z,99.90
2023-03-21T23:37:08.771Z,99.90
2023-03-21T23:39:36.562Z,99.90
2023-03-21T23:42:04.547Z,99.90
2023-03-21T23:44:33.018Z,99.90
2023-03-21T23:47:01.476Z,99.90
2023-03-21T23:49:38.175Z,99.90
2023-03-21T23:52:06.808Z,99.90
2023-03-21T23:54:34.722Z,99.90
2023-03-21T23:57:02.876Z,99.90
2023-03-21T23:59:30.951Z,99.90
